sensor_id;sensor_type;location;lat;lon;timestamp;temperature;humidity
38325;DHT22;24126;52.672;13.622;2023-07-28T00:02:02;21.60;81.10
38325;DHT22;24126;52.672;13.622;2023-07-28T00:04:29;21.50;81.30
38325;DHT22;24126;52.672;13.622;2023-07-28T00:06:56;21.60;81.40
38325;DHT22;24126;52.672;13.622;2023-07-28T00:09:24;21.60;81.50
38325;DHT22;24126;52.672;13.622;2023-07-28T00:11:51;21.60;81.50
38325;DHT22;24126;52.672;13.622;2023-07-28T00:14:18;21.70;81.40
38325;DHT22;24126;52.672;13.622;2023-07-28T00:16:45;21.70;81.30
38325;DHT22;24126;52.672;13.622;2023-07-28T00:19:12;21.70;81.30
38325;DHT22;24126;52.672;13.622;2023-07-28T00:21:39;21.70;81.20
38325;DHT22;24126;52.672;13.622;2023-07-28T00:24:05;21.70;81.20
38325;DHT22;24126;52.672;13.622;2023-07-28T00:26:32;21.80;81.10
38325;DHT22;24126;52.672;13.622;2023-07-28T00:28:59;21.80;81.20
38325;DHT22;24126;52.672;13.622;2023-07-28T00:31:26;21.80;81.10
38325;DHT22;24126;52.672;13.622;2023-07-28T00:33:54;21.80;81.20
38325;DHT22;24126;52.672;13.622;2023-07-28T00:36:21;21.80;81.10
38325;DHT22;24126;52.672;13.622;2023-07-28T00:38:48;21.90;81.10
38325;DHT22;24126;52.672;13.622;2023-07-28T00:41:16;21.90;81.20
38325;DHT22;24126;52.672;13.622;2023-07-28T00:43:43;21.90;81.10
38325;DHT22;24126;52.672;13.622;2023-07-28T00:46:10;21.90;81.20
38325;DHT22;24126;52.672;13.622;2023-07-28T00:48:37;21.90;81.30
38325;DHT22;24126;52.672;13.622;2023-07-28T00:51:05;21.90;81.30
38325;DHT22;24126;52.672;13.622;2023-07-28T00:53:33;21.90;81.80
38325;DHT22;24126;52.672;13.622;2023-07-28T00:56:00;21.90;81.50
38325;DHT22;24126;52.672;13.622;2023-07-28T00:58:29;21.90;81.50
38325;DHT22;24126;52.672;13.622;2023-07-28T01:00:56;21.90;81.50
38325;DHT22;24126;52.672;13.622;2023-07-28T01:03:24;21.90;81.60
38325;DHT22;24126;52.672;13.622;2023-07-28T01:06:26;21.90;81.70
38325;DHT22;24126;52.672;13.622;2023-07-28T01:11:15;22.00;81.80
38325;DHT22;24126;52.672;13.622;2023-07-28T01:13:43;21.90;81.80
38325;DHT22;24126;52.672;13.622;2023-07-28T01:16:10;21.90;81.90
38325;DHT22;24126;52.672;13.622;2023-07-28T01:18:37;22.00;82.00
38325;DHT22;24126;52.672;13.622;2023-07-28T01:21:08;22.00;82.00
38325;DHT22;24126;52.672;13.622;2023-07-28T01:29:19;22.00;82.20
38325;DHT22;24126;52.672;13.622;2023-07-28T01:31:46;22.00;82.20
38325;DHT22;24126;52.672;13.622;2023-07-28T01:34:14;22.00;82.20
38325;DHT22;24126;52.672;13.622;2023-07-28T01:36:41;22.00;82.20
38325;DHT22;24126;52.672;13.622;2023-07-28T01:39:09;22.10;82.10
38325;DHT22;24126;52.672;13.622;2023-07-28T01:44:10;22.10;82.20
38325;DHT22;24126;52.672;13.622;2023-07-28T01:46:38;22.10;82.20
38325;DHT22;24126;52.672;13.622;2023-07-28T01:49:05;22.10;82.20
38325;DHT22;24126;52.672;13.622;2023-07-28T01:51:32;22.10;82.20
38325;DHT22;24126;52.672;13.622;2023-07-28T01:53:59;22.10;82.30
38325;DHT22;24126;52.672;13.622;2023-07-28T01:56:26;22.10;82.20
38325;DHT22;24126;52.672;13.622;2023-07-28T01:58:54;22.10;82.30
38325;DHT22;24126;52.672;13.622;2023-07-28T02:01:21;22.10;82.40
38325;DHT22;24126;52.672;13.622;2023-07-28T02:03:48;22.20;82.40
38325;DHT22;24126;52.672;13.622;2023-07-28T02:06:15;22.20;82.50
38325;DHT22;24126;52.672;13.622;2023-07-28T02:08:47;22.20;82.50
38325;DHT22;24126;52.672;13.622;2023-07-28T02:11:14;22.20;82.50
38325;DHT22;24126;52.672;13.622;2023-07-28T02:13:41;22.20;82.50
38325;DHT22;24126;52.672;13.622;2023-07-28T02:16:16;22.30;82.40
38325;DHT22;24126;52.672;13.622;2023-07-28T02:18:43;22.30;82.40
38325;DHT22;24126;52.672;13.622;2023-07-28T02:21:11;22.30;82.40
38325;DHT22;24126;52.672;13.622;2023-07-28T02:23:38;22.30;82.50
38325;DHT22;24126;52.672;13.622;2023-07-28T02:26:05;22.30;82.50
38325;DHT22;24126;52.672;13.622;2023-07-28T02:28:32;22.30;82.60
38325;DHT22;24126;52.672;13.622;2023-07-28T02:30:59;22.30;82.60
38325;DHT22;24126;52.672;13.622;2023-07-28T02:33:28;22.30;82.80
38325;DHT22;24126;52.672;13.622;2023-07-28T02:35:57;22.30;82.80
38325;DHT22;24126;52.672;13.622;2023-07-28T02:38:24;22.30;82.80
38325;DHT22;24126;52.672;13.622;2023-07-28T02:40:51;22.30;82.80
38325;DHT22;24126;52.672;13.622;2023-07-28T02:43:19;22.30;82.80
38325;DHT22;24126;52.672;13.622;2023-07-28T02:45:48;22.30;82.70
38325;DHT22;24126;52.672;13.622;2023-07-28T02:48:15;22.40;82.80
38325;DHT22;24126;52.672;13.622;2023-07-28T02:50:46;22.40;82.80
38325;DHT22;24126;52.672;13.622;2023-07-28T02:53:13;22.40;82.90
38325;DHT22;24126;52.672;13.622;2023-07-28T02:55:41;22.40;82.80
38325;DHT22;24126;52.672;13.622;2023-07-28T02:58:09;22.40;82.80
38325;DHT22;24126;52.672;13.622;2023-07-28T03:00:37;22.40;82.90
38325;DHT22;24126;52.672;13.622;2023-07-28T03:03:05;22.40;82.90
38325;DHT22;24126;52.672;13.622;2023-07-28T03:05:33;22.40;82.90
38325;DHT22;24126;52.672;13.622;2023-07-28T03:08:21;22.40;82.90
38325;DHT22;24126;52.672;13.622;2023-07-28T03:10:48;22.40;82.80
38325;DHT22;24126;52.672;13.622;2023-07-28T03:13:15;22.40;82.80
38325;DHT22;24126;52.672;13.622;2023-07-28T03:15:45;22.40;82.80
38325;DHT22;24126;52.672;13.622;2023-07-28T03:18:12;22.40;82.80
38325;DHT22;24126;52.672;13.622;2023-07-28T03:20:39;22.40;82.80
38325;DHT22;24126;52.672;13.622;2023-07-28T03:23:09;22.40;82.90
38325;DHT22;24126;52.672;13.622;2023-07-28T03:25:37;22.40;83.00
38325;DHT22;24126;52.672;13.622;2023-07-28T03:28:04;22.40;83.00
38325;DHT22;24126;52.672;13.622;2023-07-28T03:30:31;22.50;83.10
38325;DHT22;24126;52.672;13.622;2023-07-28T03:32:58;22.50;83.10
38325;DHT22;24126;52.672;13.622;2023-07-28T03:35:25;22.50;83.10
38325;DHT22;24126;52.672;13.622;2023-07-28T03:38:02;22.40;83.10
38325;DHT22;24126;52.672;13.622;2023-07-28T03:40:30;22.40;83.20
38325;DHT22;24126;52.672;13.622;2023-07-28T03:42:57;22.40;83.20
38325;DHT22;24126;52.672;13.622;2023-07-28T03:45:24;22.50;83.30
38325;DHT22;24126;52.672;13.622;2023-07-28T03:47:52;22.50;83.20
38325;DHT22;24126;52.672;13.622;2023-07-28T03:50:19;22.50;83.40
38325;DHT22;24126;52.672;13.622;2023-07-28T03:52:46;22.50;83.40
38325;DHT22;24126;52.672;13.622;2023-07-28T03:55:13;22.50;83.40
38325;DHT22;24126;52.672;13.622;2023-07-28T03:57:40;22.50;83.40
38325;DHT22;24126;52.672;13.622;2023-07-28T04:00:08;22.40;83.40
38325;DHT22;24126;52.672;13.622;2023-07-28T04:02:41;22.50;83.50
38325;DHT22;24126;52.672;13.622;2023-07-28T04:05:08;22.40;83.50
38325;DHT22;24126;52.672;13.622;2023-07-28T04:07:35;22.50;83.50
38325;DHT22;24126;52.672;13.622;2023-07-28T04:10:03;22.50;83.50
38325;DHT22;24126;52.672;13.622;2023-07-28T04:12:31;22.50;83.50
38325;DHT22;24126;52.672;13.622;2023-07-28T04:14:58;22.50;83.50
38325;DHT22;24126;52.672;13.622;2023-07-28T04:17:25;22.50;83.50
38325;DHT22;24126;52.672;13.622;2023-07-28T04:19:52;22.50;83.50
38325;DHT22;24126;52.672;13.622;2023-07-28T04:22:20;22.60;83.50
38325;DHT22;24126;52.672;13.622;2023-07-28T04:24:50;22.50;83.40
38325;DHT22;24126;52.672;13.622;2023-07-28T04:27:18;22.60;83.50
38325;DHT22;24126;52.672;13.622;2023-07-28T04:29:45;22.50;83.40
38325;DHT22;24126;52.672;13.622;2023-07-28T04:32:14;22.60;83.50
38325;DHT22;24126;52.672;13.622;2023-07-28T04:34:41;22.60;83.50
38325;DHT22;24126;52.672;13.622;2023-07-28T04:37:12;22.60;83.50
38325;DHT22;24126;52.672;13.622;2023-07-28T04:39:56;22.60;83.60
38325;DHT22;24126;52.672;13.622;2023-07-28T04:42:26;22.60;83.60
38325;DHT22;24126;52.672;13.622;2023-07-28T04:44:53;22.60;83.60
38325;DHT22;24126;52.672;13.622;2023-07-28T04:47:20;22.60;83.60
38325;DHT22;24126;52.672;13.622;2023-07-28T04:49:47;22.60;83.60
38325;DHT22;24126;52.672;13.622;2023-07-28T04:52:46;22.60;83.70
38325;DHT22;24126;52.672;13.622;2023-07-28T04:55:33;22.60;83.70
38325;DHT22;24126;52.672;13.622;2023-07-28T04:58:01;22.60;83.80
38325;DHT22;24126;52.672;13.622;2023-07-28T05:00:39;22.60;83.70
38325;DHT22;24126;52.672;13.622;2023-07-28T05:03:08;22.60;83.70
38325;DHT22;24126;52.672;13.622;2023-07-28T05:05:45;22.70;83.80
38325;DHT22;24126;52.672;13.622;2023-07-28T05:08:13;22.60;83.80
38325;DHT22;24126;52.672;13.622;2023-07-28T05:10:40;22.70;83.80
38325;DHT22;24126;52.672;13.622;2023-07-28T05:13:10;22.70;83.80
38325;DHT22;24126;52.672;13.622;2023-07-28T05:15:41;22.70;83.80
38325;DHT22;24126;52.672;13.622;2023-07-28T05:18:14;22.70;83.80
38325;DHT22;24126;52.672;13.622;2023-07-28T05:21:00;22.70;83.70
38325;DHT22;24126;52.672;13.622;2023-07-28T05:23:27;22.70;83.80
38325;DHT22;24126;52.672;13.622;2023-07-28T05:25:54;22.70;83.80
38325;DHT22;24126;52.672;13.622;2023-07-28T05:28:21;22.80;83.90
38325;DHT22;24126;52.672;13.622;2023-07-28T05:30:51;22.70;83.80
38325;DHT22;24126;52.672;13.622;2023-07-28T05:33:18;22.80;83.90
38325;DHT22;24126;52.672;13.622;2023-07-28T05:35:56;22.80;83.90
38325;DHT22;24126;52.672;13.622;2023-07-28T05:38:25;22.80;83.90
38325;DHT22;24126;52.672;13.622;2023-07-28T05:40:59;22.80;83.90
38325;DHT22;24126;52.672;13.622;2023-07-28T05:43:28;22.90;84.00
38325;DHT22;24126;52.672;13.622;2023-07-28T05:45:57;22.90;84.00
38325;DHT22;24126;52.672;13.622;2023-07-28T05:48:26;22.80;84.00
38325;DHT22;24126;52.672;13.622;2023-07-28T05:50:53;22.90;84.10
38325;DHT22;24126;52.672;13.622;2023-07-28T05:53:20;22.90;84.10
38325;DHT22;24126;52.672;13.622;2023-07-28T05:55:51;22.90;84.20
38325;DHT22;24126;52.672;13.622;2023-07-28T05:58:18;22.90;84.20
38325;DHT22;24126;52.672;13.622;2023-07-28T06:00:45;22.90;84.20
38325;DHT22;24126;52.672;13.622;2023-07-28T06:03:32;22.90;84.30
38325;DHT22;24126;52.672;13.622;2023-07-28T06:06:07;23.00;84.50
38325;DHT22;24126;52.672;13.622;2023-07-28T06:08:34;23.00;84.50
38325;DHT22;24126;52.672;13.622;2023-07-28T06:11:05;23.00;84.20
38325;DHT22;24126;52.672;13.622;2023-07-28T06:13:33;23.00;84.20
38325;DHT22;24126;52.672;13.622;2023-07-28T06:16:01;23.00;84.20
38325;DHT22;24126;52.672;13.622;2023-07-28T06:18:28;23.00;84.20
38325;DHT22;24126;52.672;13.622;2023-07-28T06:21:06;23.00;84.20
38325;DHT22;24126;52.672;13.622;2023-07-28T06:23:33;23.00;84.20
38325;DHT22;24126;52.672;13.622;2023-07-28T06:26:01;23.00;84.20
38325;DHT22;24126;52.672;13.622;2023-07-28T06:28:28;23.00;84.20
38325;DHT22;24126;52.672;13.622;2023-07-28T06:30:56;23.00;84.20
38325;DHT22;24126;52.672;13.622;2023-07-28T06:33:25;23.00;84.30
38325;DHT22;24126;52.672;13.622;2023-07-28T06:35:52;23.00;84.40
38325;DHT22;24126;52.672;13.622;2023-07-28T06:38:19;23.00;84.50
38325;DHT22;24126;52.672;13.622;2023-07-28T06:40:46;23.00;84.60
38325;DHT22;24126;52.672;13.622;2023-07-28T06:43:13;23.10;84.70
38325;DHT22;24126;52.672;13.622;2023-07-28T06:45:40;23.20;84.60
38325;DHT22;24126;52.672;13.622;2023-07-28T06:48:08;23.20;84.60
38325;DHT22;24126;52.672;13.622;2023-07-28T06:50:35;23.20;84.50
38325;DHT22;24126;52.672;13.622;2023-07-28T06:53:02;23.20;84.50
38325;DHT22;24126;52.672;13.622;2023-07-28T06:55:29;23.20;84.50
38325;DHT22;24126;52.672;13.622;2023-07-28T06:57:56;23.20;84.40
38325;DHT22;24126;52.672;13.622;2023-07-28T07:00:23;23.20;84.40
38325;DHT22;24126;52.672;13.622;2023-07-28T07:02:51;23.20;84.40
38325;DHT22;24126;52.672;13.622;2023-07-28T07:05:18;23.20;84.50
38325;DHT22;24126;52.672;13.622;2023-07-28T07:07:45;23.30;84.50
38325;DHT22;24126;52.672;13.622;2023-07-28T07:10:12;23.30;84.50
38325;DHT22;24126;52.672;13.622;2023-07-28T07:12:43;23.30;84.50
38325;DHT22;24126;52.672;13.622;2023-07-28T07:15:10;23.30;84.50
38325;DHT22;24126;52.672;13.622;2023-07-28T07:17:38;23.30;84.40
38325;DHT22;24126;52.672;13.622;2023-07-28T07:20:05;23.40;84.40
38325;DHT22;24126;52.672;13.622;2023-07-28T07:22:33;23.30;84.30
38325;DHT22;24126;52.672;13.622;2023-07-28T07:25:00;23.40;84.40
38325;DHT22;24126;52.672;13.622;2023-07-28T07:27:27;23.40;84.60
38325;DHT22;24126;52.672;13.622;2023-07-28T07:29:54;23.40;84.60
38325;DHT22;24126;52.672;13.622;2023-07-28T07:32:21;23.40;84.70
38325;DHT22;24126;52.672;13.622;2023-07-28T07:34:51;23.40;84.60
38325;DHT22;24126;52.672;13.622;2023-07-28T07:37:19;23.40;84.70
38325;DHT22;24126;52.672;13.622;2023-07-28T07:39:46;23.40;85.40
38325;DHT22;24126;52.672;13.622;2023-07-28T07:42:13;23.40;84.70
38325;DHT22;24126;52.672;13.622;2023-07-28T07:44:40;23.40;84.70
38325;DHT22;24126;52.672;13.622;2023-07-28T07:47:11;23.50;84.70
38325;DHT22;24126;52.672;13.622;2023-07-28T07:49:38;23.50;84.60
38325;DHT22;24126;52.672;13.622;2023-07-28T07:52:09;23.50;84.50
38325;DHT22;24126;52.672;13.622;2023-07-28T07:54:36;23.40;84.40
38325;DHT22;24126;52.672;13.622;2023-07-28T07:57:03;23.50;84.30
38325;DHT22;24126;52.672;13.622;2023-07-28T07:59:31;23.50;84.60
38325;DHT22;24126;52.672;13.622;2023-07-28T08:01:59;23.50;84.80
38325;DHT22;24126;52.672;13.622;2023-07-28T08:04:28;23.50;84.80
38325;DHT22;24126;52.672;13.622;2023-07-28T08:06:55;23.60;84.90
38325;DHT22;24126;52.672;13.622;2023-07-28T08:09:23;23.60;85.00
38325;DHT22;24126;52.672;13.622;2023-07-28T08:11:50;23.70;85.10
38325;DHT22;24126;52.672;13.622;2023-07-28T08:14:17;23.80;85.10
38325;DHT22;24126;52.672;13.622;2023-07-28T08:16:44;23.90;84.80
38325;DHT22;24126;52.672;13.622;2023-07-28T08:19:11;23.90;84.60
38325;DHT22;24126;52.672;13.622;2023-07-28T08:21:39;23.90;84.50
38325;DHT22;24126;52.672;13.622;2023-07-28T08:24:06;23.90;84.30
38325;DHT22;24126;52.672;13.622;2023-07-28T08:26:34;23.90;84.10
38325;DHT22;24126;52.672;13.622;2023-07-28T08:29:01;23.90;84.10
38325;DHT22;24126;52.672;13.622;2023-07-28T08:31:28;23.90;84.20
38325;DHT22;24126;52.672;13.622;2023-07-28T08:33:55;24.00;84.40
38325;DHT22;24126;52.672;13.622;2023-07-28T08:36:22;24.00;84.40
38325;DHT22;24126;52.672;13.622;2023-07-28T08:38:49;24.00;84.40
38325;DHT22;24126;52.672;13.622;2023-07-28T08:41:16;24.00;84.30
38325;DHT22;24126;52.672;13.622;2023-07-28T08:43:43;24.10;84.30
38325;DHT22;24126;52.672;13.622;2023-07-28T08:46:10;24.10;84.40
38325;DHT22;24126;52.672;13.622;2023-07-28T08:48:39;24.20;84.50
38325;DHT22;24126;52.672;13.622;2023-07-28T08:51:06;24.20;84.30
38325;DHT22;24126;52.672;13.622;2023-07-28T08:53:34;24.30;84.00
38325;DHT22;24126;52.672;13.622;2023-07-28T08:56:01;24.30;83.90
38325;DHT22;24126;52.672;13.622;2023-07-28T08:58:29;24.30;83.80
38325;DHT22;24126;52.672;13.622;2023-07-28T09:00:56;24.30;83.70
38325;DHT22;24126;52.672;13.622;2023-07-28T09:03:26;24.40;83.80
38325;DHT22;24126;52.672;13.622;2023-07-28T09:06:00;24.40;84.00
38325;DHT22;24126;52.672;13.622;2023-07-28T09:08:27;24.50;83.90
38325;DHT22;24126;52.672;13.622;2023-07-28T09:10:54;24.50;84.00
38325;DHT22;24126;52.672;13.622;2023-07-28T09:13:22;24.60;83.90
38325;DHT22;24126;52.672;13.622;2023-07-28T09:15:49;24.60;84.10
38325;DHT22;24126;52.672;13.622;2023-07-28T09:18:17;24.70;83.90
38325;DHT22;24126;52.672;13.622;2023-07-28T09:20:44;24.70;83.70
38325;DHT22;24126;52.672;13.622;2023-07-28T09:23:13;24.80;83.60
38325;DHT22;24126;52.672;13.622;2023-07-28T09:25:40;24.80;83.20
38325;DHT22;24126;52.672;13.622;2023-07-28T09:28:07;24.80;83.10
38325;DHT22;24126;52.672;13.622;2023-07-28T09:30:46;24.80;82.90
38325;DHT22;24126;52.672;13.622;2023-07-28T09:33:13;24.90;82.90
38325;DHT22;24126;52.672;13.622;2023-07-28T09:35:47;24.90;82.70
38325;DHT22;24126;52.672;13.622;2023-07-28T09:38:15;24.90;82.90
38325;DHT22;24126;52.672;13.622;2023-07-28T09:40:43;24.90;83.40
38325;DHT22;24126;52.672;13.622;2023-07-28T09:43:10;25.00;83.50
38325;DHT22;24126;52.672;13.622;2023-07-28T09:45:38;25.20;83.50
38325;DHT22;24126;52.672;13.622;2023-07-28T09:48:06;25.30;83.10
38325;DHT22;24126;52.672;13.622;2023-07-28T09:50:36;25.40;82.70
38325;DHT22;24126;52.672;13.622;2023-07-28T09:53:03;25.50;82.70
38325;DHT22;24126;52.672;13.622;2023-07-28T09:55:31;25.50;82.20
38325;DHT22;24126;52.672;13.622;2023-07-28T09:58:01;25.50;81.80
38325;DHT22;24126;52.672;13.622;2023-07-28T10:00:31;25.60;81.30
38325;DHT22;24126;52.672;13.622;2023-07-28T10:03:00;25.50;81.40
38325;DHT22;24126;52.672;13.622;2023-07-28T10:05:28;25.50;81.70
38325;DHT22;24126;52.672;13.622;2023-07-28T10:07:55;25.50;81.40
38325;DHT22;24126;52.672;13.622;2023-07-28T10:10:23;25.50;81.40
38325;DHT22;24126;52.672;13.622;2023-07-28T10:12:50;25.50;81.60
38325;DHT22;24126;52.672;13.622;2023-07-28T10:15:21;25.60;81.50
38325;DHT22;24126;52.672;13.622;2023-07-28T10:17:54;25.60;81.10
38325;DHT22;24126;52.672;13.622;2023-07-28T10:20:30;25.50;81.00
38325;DHT22;24126;52.672;13.622;2023-07-28T10:23:05;25.40;80.80
38325;DHT22;24126;52.672;13.622;2023-07-28T10:25:36;25.30;80.70
38325;DHT22;24126;52.672;13.622;2023-07-28T10:28:04;25.20;80.60
38325;DHT22;24126;52.672;13.622;2023-07-28T10:30:35;25.10;80.50
38325;DHT22;24126;52.672;13.622;2023-07-28T10:33:04;25.00;80.80
38325;DHT22;24126;52.672;13.622;2023-07-28T10:35:31;24.90;81.00
38325;DHT22;24126;52.672;13.622;2023-07-28T10:38:27;24.80;81.30
38325;DHT22;24126;52.672;13.622;2023-07-28T10:40:47;24.80;81.50
38325;DHT22;24126;52.672;13.622;2023-07-28T10:43:19;24.80;81.80
38325;DHT22;24126;52.672;13.622;2023-07-28T10:45:46;24.80;82.20
38325;DHT22;24126;52.672;13.622;2023-07-28T10:48:13;24.90;82.40
38325;DHT22;24126;52.672;13.622;2023-07-28T10:50:40;24.90;82.50
38325;DHT22;24126;52.672;13.622;2023-07-28T10:53:08;25.00;82.60
38325;DHT22;24126;52.672;13.622;2023-07-28T10:55:37;25.00;82.40
38325;DHT22;24126;52.672;13.622;2023-07-28T10:58:04;25.00;82.40
38325;DHT22;24126;52.672;13.622;2023-07-28T11:00:31;25.10;82.60
38325;DHT22;24126;52.672;13.622;2023-07-28T11:02:59;25.10;82.40
38325;DHT22;24126;52.672;13.622;2023-07-28T11:05:27;25.20;82.20
38325;DHT22;24126;52.672;13.622;2023-07-28T11:07:56;25.20;82.10
38325;DHT22;24126;52.672;13.622;2023-07-28T11:10:24;25.20;82.40
38325;DHT22;24126;52.672;13.622;2023-07-28T11:12:52;25.30;82.80
38325;DHT22;24126;52.672;13.622;2023-07-28T11:15:19;25.50;83.50
38325;DHT22;24126;52.672;13.622;2023-07-28T11:17:47;25.70;83.20
38325;DHT22;24126;52.672;13.622;2023-07-28T11:22:45;26.00;81.80
38325;DHT22;24126;52.672;13.622;2023-07-28T11:25:12;26.00;81.40
38325;DHT22;24126;52.672;13.622;2023-07-28T11:27:40;26.10;81.00
38325;DHT22;24126;52.672;13.622;2023-07-28T11:30:08;26.10;81.20
38325;DHT22;24126;52.672;13.622;2023-07-28T11:32:36;26.20;81.40
38325;DHT22;24126;52.672;13.622;2023-07-28T11:35:07;26.20;80.90
38325;DHT22;24126;52.672;13.622;2023-07-28T11:37:35;26.20;80.60
38325;DHT22;24126;52.672;13.622;2023-07-28T11:40:03;26.20;80.40
38325;DHT22;24126;52.672;13.622;2023-07-28T11:42:33;26.30;81.20
38325;DHT22;24126;52.672;13.622;2023-07-28T11:45:04;26.30;80.60
38325;DHT22;24126;52.672;13.622;2023-07-28T11:47:33;26.30;80.30
38325;DHT22;24126;52.672;13.622;2023-07-28T11:50:00;26.30;79.80
38325;DHT22;24126;52.672;13.622;2023-07-28T11:52:30;26.20;80.20
38325;DHT22;24126;52.672;13.622;2023-07-28T11:55:00;26.20;80.00
38325;DHT22;24126;52.672;13.622;2023-07-28T11:57:28;26.20;79.90
38325;DHT22;24126;52.672;13.622;2023-07-28T11:59:56;26.10;79.80
38325;DHT22;24126;52.672;13.622;2023-07-28T12:02:27;26.10;80.20
38325;DHT22;24126;52.672;13.622;2023-07-28T12:04:55;26.00;80.10
38325;DHT22;24126;52.672;13.622;2023-07-28T12:07:30;26.00;80.40
38325;DHT22;24126;52.672;13.622;2023-07-28T12:10:04;26.00;80.20
38325;DHT22;24126;52.672;13.622;2023-07-28T12:12:39;26.00;80.10
38325;DHT22;24126;52.672;13.622;2023-07-28T12:15:25;25.90;80.10
38325;DHT22;24126;52.672;13.622;2023-07-28T12:20:35;25.90;80.30
38325;DHT22;24126;52.672;13.622;2023-07-28T12:23:02;25.90;80.40
38325;DHT22;24126;52.672;13.622;2023-07-28T12:25:30;25.90;80.50
38325;DHT22;24126;52.672;13.622;2023-07-28T12:27:58;25.90;80.60
38325;DHT22;24126;52.672;13.622;2023-07-28T12:30:25;25.90;80.60
38325;DHT22;24126;52.672;13.622;2023-07-28T12:32:52;25.90;80.50
38325;DHT22;24126;52.672;13.622;2023-07-28T12:35:19;26.00;81.00
38325;DHT22;24126;52.672;13.622;2023-07-28T12:37:50;26.10;81.20
38325;DHT22;24126;52.672;13.622;2023-07-28T12:40:18;26.30;81.20
38325;DHT22;24126;52.672;13.622;2023-07-28T12:42:46;26.40;81.00
38325;DHT22;24126;52.672;13.622;2023-07-28T12:45:14;26.50;80.80
38325;DHT22;24126;52.672;13.622;2023-07-28T12:47:41;26.50;80.40
38325;DHT22;24126;52.672;13.622;2023-07-28T12:50:09;26.60;80.30
38325;DHT22;24126;52.672;13.622;2023-07-28T12:52:37;26.70;80.30
38325;DHT22;24126;52.672;13.622;2023-07-28T12:55:04;26.70;79.80
38325;DHT22;24126;52.672;13.622;2023-07-28T12:57:32;26.80;79.60
38325;DHT22;24126;52.672;13.622;2023-07-28T12:59:59;26.80;79.50
38325;DHT22;24126;52.672;13.622;2023-07-28T13:02:26;26.90;79.50
38325;DHT22;24126;52.672;13.622;2023-07-28T13:04:53;26.90;79.20
38325;DHT22;24126;52.672;13.622;2023-07-28T13:07:21;27.10;80.20
38325;DHT22;24126;52.672;13.622;2023-07-28T13:09:49;27.20;79.10
38325;DHT22;24126;52.672;13.622;2023-07-28T13:12:16;27.30;77.80
38325;DHT22;24126;52.672;13.622;2023-07-28T13:14:43;27.40;77.50
38325;DHT22;24126;52.672;13.622;2023-07-28T13:17:10;27.50;77.80
38325;DHT22;24126;52.672;13.622;2023-07-28T13:19:38;27.50;76.90
38325;DHT22;24126;52.672;13.622;2023-07-28T13:22:05;27.60;76.60
38325;DHT22;24126;52.672;13.622;2023-07-28T13:24:32;27.60;75.90
38325;DHT22;24126;52.672;13.622;2023-07-28T13:26:59;27.60;76.00
38325;DHT22;24126;52.672;13.622;2023-07-28T13:29:26;27.50;75.90
38325;DHT22;24126;52.672;13.622;2023-07-28T13:31:56;27.50;75.70
38325;DHT22;24126;52.672;13.622;2023-07-28T13:34:23;27.50;75.40
38325;DHT22;24126;52.672;13.622;2023-07-28T13:36:51;27.40;75.50
38325;DHT22;24126;52.672;13.622;2023-07-28T13:39:18;27.40;75.50
38325;DHT22;24126;52.672;13.622;2023-07-28T13:41:45;27.40;75.40
38325;DHT22;24126;52.672;13.622;2023-07-28T13:44:12;27.40;75.60
38325;DHT22;24126;52.672;13.622;2023-07-28T13:46:39;27.30;75.60
38325;DHT22;24126;52.672;13.622;2023-07-28T13:49:06;27.40;75.30
38325;DHT22;24126;52.672;13.622;2023-07-28T13:51:33;27.40;75.00
38325;DHT22;24126;52.672;13.622;2023-07-28T13:54:00;27.40;74.70
38325;DHT22;24126;52.672;13.622;2023-07-28T13:56:28;27.40;74.50
38325;DHT22;24126;52.672;13.622;2023-07-28T13:58:55;27.40;74.30
38325;DHT22;24126;52.672;13.622;2023-07-28T14:01:23;27.40;74.30
38325;DHT22;24126;52.672;13.622;2023-07-28T14:03:50;27.40;74.40
38325;DHT22;24126;52.672;13.622;2023-07-28T14:06:17;27.40;74.20
38325;DHT22;24126;52.672;13.622;2023-07-28T14:08:45;27.40;74.30
38325;DHT22;24126;52.672;13.622;2023-07-28T14:11:12;27.50;74.10
38325;DHT22;24126;52.672;13.622;2023-07-28T14:13:39;27.50;74.00
38325;DHT22;24126;52.672;13.622;2023-07-28T14:16:06;27.50;73.00
38325;DHT22;24126;52.672;13.622;2023-07-28T14:18:35;27.50;73.00
38325;DHT22;24126;52.672;13.622;2023-07-28T14:21:02;27.50;73.20
38325;DHT22;24126;52.672;13.622;2023-07-28T14:23:29;27.60;73.40
38325;DHT22;24126;52.672;13.622;2023-07-28T14:25:56;27.60;73.40
38325;DHT22;24126;52.672;13.622;2023-07-28T14:28:24;27.60;73.40
38325;DHT22;24126;52.672;13.622;2023-07-28T14:30:51;27.60;73.20
38325;DHT22;24126;52.672;13.622;2023-07-28T14:33:18;27.60;73.70
38325;DHT22;24126;52.672;13.622;2023-07-28T14:35:46;27.60;72.80
38325;DHT22;24126;52.672;13.622;2023-07-28T14:38:13;27.60;72.50
38325;DHT22;24126;52.672;13.622;2023-07-28T14:40:41;27.60;72.40
38325;DHT22;24126;52.672;13.622;2023-07-28T14:43:10;27.60;72.70
38325;DHT22;24126;52.672;13.622;2023-07-28T14:45:37;27.60;72.30
38325;DHT22;24126;52.672;13.622;2023-07-28T14:48:04;27.60;72.60
38325;DHT22;24126;52.672;13.622;2023-07-28T14:50:31;27.70;72.70
38325;DHT22;24126;52.672;13.622;2023-07-28T14:52:58;27.70;72.50
38325;DHT22;24126;52.672;13.622;2023-07-28T14:55:26;27.70;72.30
38325;DHT22;24126;52.672;13.622;2023-07-28T14:57:53;27.80;72.80
38325;DHT22;24126;52.672;13.622;2023-07-28T15:00:20;27.80;72.40
38325;DHT22;24126;52.672;13.622;2023-07-28T15:02:47;27.80;72.40
38325;DHT22;24126;52.672;13.622;2023-07-28T15:05:14;27.80;72.30
38325;DHT22;24126;52.672;13.622;2023-07-28T15:07:41;27.80;72.10
38325;DHT22;24126;52.672;13.622;2023-07-28T15:10:08;27.80;72.30
38325;DHT22;24126;52.672;13.622;2023-07-28T15:12:36;27.80;72.30
38325;DHT22;24126;52.672;13.622;2023-07-28T15:15:03;27.80;72.10
38325;DHT22;24126;52.672;13.622;2023-07-28T15:17:30;27.80;72.00
38325;DHT22;24126;52.672;13.622;2023-07-28T15:19:57;27.70;71.70
38325;DHT22;24126;52.672;13.622;2023-07-28T15:22:24;27.70;71.60
38325;DHT22;24126;52.672;13.622;2023-07-28T15:24:51;27.60;71.60
38325;DHT22;24126;52.672;13.622;2023-07-28T15:27:18;27.60;71.70
38325;DHT22;24126;52.672;13.622;2023-07-28T15:29:45;27.60;71.80
38325;DHT22;24126;52.672;13.622;2023-07-28T15:32:12;27.60;71.80
38325;DHT22;24126;52.672;13.622;2023-07-28T15:34:39;27.50;71.60
38325;DHT22;24126;52.672;13.622;2023-07-28T15:37:06;27.50;71.50
38325;DHT22;24126;52.672;13.622;2023-07-28T15:39:33;27.50;71.20